createdAt,value
2023-04-18T00:00:31.278Z,8.90
2023-04-18T00:02:59.255Z,9.70
2023-04-18T00:05:28.002Z,7.80
2023-04-18T00:07:54.784Z,8.30
2023-04-18T00:10:21.666Z,7.80
2023-04-18T00:12:48.990Z,6.40
2023-04-18T00:15:15.997Z,7.50
2023-04-18T00:17:43.076Z,7.50
2023-04-18T00:20:11.329Z,7.10
2023-04-18T00:22:42.726Z,7.60
2023-04-18T00:25:10.552Z,7.70
2023-04-18T00:27:38.488Z,6.80
2023-04-18T00:30:08.740Z,7.60
2023-04-18T00:32:37.520Z,7.20
2023-04-18T00:35:04.638Z,7.90
2023-04-18T00:37:31.312Z,7.00
2023-04-18T00:39:58.043Z,7.20
2023-04-18T00:42:26.133Z,5.90
2023-04-18T00:44:52.832Z,7.30
2023-04-18T00:47:19.540Z,6.10
2023-04-18T00:49:46.356Z,8.60
2023-04-18T00:52:13.271Z,7.10
2023-04-18T00:54:41.162Z,9.90
2023-04-18T00:57:08.171Z,6.80
2023-04-18T00:59:35.541Z,7.30
2023-04-18T01:02:05.526Z,6.30
2023-04-18T01:04:33.847Z,8.90
2023-04-18T01:07:03.470Z,8.20
2023-04-18T01:09:30.568Z,8.10
2023-04-18T01:11:57.291Z,8.60
2023-04-18T01:14:24.173Z,6.50
2023-04-18T01:16:50.881Z,7.60
2023-04-18T01:19:19.019Z,7.40
2023-04-18T01:21:45.805Z,6.80
2023-04-18T01:24:14.791Z,7.30
2023-04-18T01:26:43.751Z,7.00
2023-04-18T01:29:10.952Z,6.50
2023-04-18T01:31:38.737Z,6.50
2023-04-18T01:34:07.054Z,7.60
2023-04-18T01:36:34.309Z,7.20
2023-04-18T01:39:02.170Z,8.80
2023-04-18T01:41:32.417Z,7.20
2023-04-18T01:43:59.501Z,6.50
2023-04-18T01:46:26.449Z,8.00
2023-04-18T01:48:53.797Z,7.50
2023-04-18T01:51:20.712Z,6.60
2023-04-18T01:53:47.438Z,7.80
2023-04-18T01:56:14.231Z,7.40
2023-04-18T01:58:41.769Z,7.40
2023-04-18T02:01:08.767Z,7.30
2023-04-18T02:03:35.659Z,7.50
2023-04-18T02:06:03.136Z,4.80
2023-04-18T02:08:31.003Z,6.60
2023-04-18T02:10:57.742Z,8.00
2023-04-18T02:13:25.024Z,8.30
2023-04-18T02:15:51.743Z,8.00
2023-04-18T02:18:18.516Z,7.20
2023-04-18T02:20:46.503Z,7.60
2023-04-18T02:23:13.318Z,7.60
2023-04-18T02:25:40.108Z,6.10
2023-04-18T02:28:06.774Z,7.10
2023-04-18T02:30:33.452Z,5.90
2023-04-18T02:33:02.041Z,6.50
2023-04-18T02:35:28.965Z,8.10
2023-04-18T02:37:55.675Z,8.60
2023-04-18T02:40:22.449Z,7.60
2023-04-18T02:42:49.144Z,8.50
2023-04-18T02:45:15.977Z,7.10
2023-04-18T02:47:51.792Z,7.10
2023-04-18T02:50:21.917Z,7.40
2023-04-18T02:52:48.829Z,7.30
2023-04-18T02:55:16.609Z,7.70
2023-04-18T02:57:43.714Z,7.30
2023-04-18T03:00:10.728Z,8.00
2023-04-18T03:02:56.000Z,11.10
2023-04-18T03:05:36.686Z,5.90
2023-04-18T03:08:04.553Z,8.50
2023-04-18T03:10:31.503Z,8.40
2023-04-18T03:12:58.237Z,6.40
2023-04-18T03:15:25.047Z,9.40
2023-04-18T03:17:52.450Z,7.50
2023-04-18T03:20:20.071Z,6.10
2023-04-18T03:22:46.839Z,9.40
2023-04-18T03:25:14.015Z,6.50
2023-04-18T03:27:46.976Z,8.40
2023-04-18T03:30:14.896Z,7.20
2023-04-18T03:32:42.421Z,10.50
2023-04-18T03:35:09.548Z,9.10
2023-04-18T03:37:36.272Z,8.20
2023-04-18T03:40:05.594Z,7.60
2023-04-18T03:42:32.433Z,8.70
2023-04-18T03:44:59.476Z,8.70
2023-04-18T03:47:26.488Z,7.30
2023-04-18T03:49:56.177Z,7.10
2023-04-18T03:52:23.528Z,7.50
2023-04-18T03:54:50.279Z,6.80
2023-04-18T03:57:17.168Z,6.70
2023-04-18T03:59:45.133Z,9.40
2023-04-18T04:02:12.909Z,7.20
2023-04-18T04:04:39.708Z,8.10
2023-04-18T04:07:06.474Z,7.70
2023-04-18T04:09:33.251Z,9.30
2023-04-18T04:12:00.231Z,7.80
2023-04-18T04:14:27.306Z,9.30
2023-04-18T04:16:54.226Z,8.50
2023-04-18T04:19:21.352Z,8.90
2023-04-18T04:21:54.272Z,9.80
2023-04-18T04:24:22.814Z,7.50
2023-04-18T04:26:50.859Z,7.70
2023-04-18T04:29:21.637Z,9.00
2023-04-18T04:31:48.770Z,7.40
2023-04-18T04:34:25.447Z,6.70
2023-04-18T04:36:54.087Z,10.00
2023-04-18T04:39:21.529Z,8.40
2023-04-18T04:41:58.294Z,8.60
2023-04-18T04:44:26.874Z,8.60
2023-04-18T04:46:54.595Z,8.70
2023-04-18T04:49:23.871Z,8.70
2023-04-18T04:51:50.600Z,9.80
2023-04-18T04:54:17.376Z,9.40
2023-04-18T04:56:44.334Z,9.00
2023-04-18T04:59:11.221Z,9.20
2023-04-18T05:04:25.471Z,6.80
2023-04-18T05:06:52.494Z,8.00
2023-04-18T05:09:19.164Z,8.30
2023-04-18T05:11:46.826Z,8.90
2023-04-18T05:14:13.811Z,11.00
2023-04-18T05:16:40.667Z,9.30
2023-04-18T05:19:07.501Z,10.10
2023-04-18T05:21:34.364Z,8.40
2023-04-18T05:24:01.074Z,9.80
2023-04-18T05:26:27.773Z,7.40
2023-04-18T05:28:54.567Z,9.20
2023-04-18T05:31:24.248Z,10.00
2023-04-18T05:33:51.099Z,9.10
2023-04-18T05:36:17.827Z,9.80
2023-04-18T05:38:44.534Z,8.20
2023-04-18T05:41:11.251Z,10.30
2023-04-18T05:43:37.971Z,8.50
2023-04-18T05:46:04.809Z,8.90
2023-04-18T05:48:31.636Z,14.30
2023-04-18T05:50:58.633Z,8.60
2023-04-18T05:53:25.344Z,7.80
2023-04-18T05:55:52.088Z,7.50
2023-04-18T05:58:18.762Z,8.60
2023-04-18T06:00:45.481Z,8.70
2023-04-18T06:03:12.366Z,9.20
2023-04-18T06:05:41.174Z,11.30
2023-04-18T06:08:08.176Z,8.50
2023-04-18T06:10:36.458Z,8.50
2023-04-18T06:13:05.149Z,11.20
2023-04-18T06:15:31.925Z,11.30
2023-04-18T06:17:58.712Z,10.90
2023-04-18T06:20:25.847Z,9.50
2023-04-18T06:22:52.622Z,11.50
2023-04-18T06:25:19.381Z,11.80
2023-04-18T06:27:46.417Z,10.80
2023-04-18T06:30:13.871Z,10.10
2023-04-18T06:32:40.641Z,10.20
2023-04-18T06:35:07.620Z,8.30
2023-04-18T06:37:34.406Z,8.50
2023-04-18T06:40:01.141Z,8.70
2023-04-18T06:42:27.906Z,12.70
2023-04-18T06:44:54.598Z,10.00
2023-04-18T06:47:21.484Z,11.60
2023-04-18T06:49:48.318Z,10.90
2023-04-18T06:52:15.014Z,12.50
2023-04-18T06:54:41.854Z,10.20
2023-04-18T06:57:09.482Z,10.00
2023-04-18T06:59:39.296Z,10.00
2023-04-18T07:02:07.361Z,10.00
2023-04-18T07:04:34.558Z,9.80
2023-04-18T07:07:02.214Z,19.90
2023-04-18T07:09:29.000Z,10.80
2023-04-18T07:11:55.833Z,11.10
2023-04-18T07:14:23.357Z,8.50
2023-04-18T07:16:50.525Z,7.90
2023-04-18T07:19:17.260Z,9.50
2023-04-18T07:21:46.018Z,12.30
2023-04-18T07:24:13.051Z,8.80
2023-04-18T07:26:40.327Z,10.70
2023-04-18T07:29:07.043Z,6.70
2023-04-18T07:31:34.114Z,10.60
2023-04-18T07:34:00.919Z,10.80
2023-04-18T07:36:28.407Z,9.60
2023-04-18T07:38:55.136Z,10.70
2023-04-18T07:41:21.917Z,7.10
2023-04-18T07:43:48.624Z,7.80
2023-04-18T07:46:15.379Z,8.20
2023-04-18T07:48:42.116Z,8.50
2023-04-18T07:51:08.811Z,8.00
2023-04-18T07:53:35.905Z,8.20
2023-04-18T07:56:02.686Z,7.60
2023-04-18T07:58:29.568Z,8.10
2023-04-18T08:00:56.646Z,7.60
2023-04-18T08:03:23.495Z,9.90
2023-04-18T08:05:51.579Z,7.80
2023-04-18T08:08:18.322Z,7.10
2023-04-18T08:10:45.289Z,9.50
2023-04-18T08:13:14.880Z,8.40
2023-04-18T08:15:41.575Z,7.70
2023-04-18T08:18:08.362Z,8.60
2023-04-18T08:20:37.318Z,9.60
2023-04-18T08:23:08.746Z,7.20
2023-04-18T08:25:37.342Z,8.70
2023-04-18T08:28:04.331Z,8.60
2023-04-18T08:30:31.276Z,8.90
2023-04-18T08:32:59.063Z,11.70
2023-04-18T08:35:25.913Z,9.90
2023-04-18T08:37:52.786Z,18.10
2023-04-18T08:40:20.291Z,10.70
2023-04-18T08:42:47.089Z,6.50
2023-04-18T08:45:14.277Z,6.90
2023-04-18T08:47:41.516Z,5.80
2023-04-18T08:50:09.569Z,7.20
2023-04-18T08:52:37.913Z,6.50
2023-04-18T08:55:04.838Z,8.30
2023-04-18T08:57:31.915Z,6.10
2023-04-18T09:00:00.849Z,7.30
2023-04-18T09:02:45.018Z,4.90
2023-04-18T09:05:16.637Z,7.00
2023-04-18T09:07:43.358Z,5.90
2023-04-18T09:10:10.260Z,7.80
2023-04-18T09:12:50.211Z,5.40
2023-04-18T09:15:20.260Z,7.60
2023-04-18T09:17:53.190Z,6.10
2023-04-18T09:20:30.965Z,7.10
2023-04-18T09:23:00.891Z,5.10
2023-04-18T09:25:29.419Z,4.80
2023-04-18T09:28:00.767Z,7.30
2023-04-18T09:30:40.638Z,6.20
2023-04-18T09:33:09.632Z,5.80
2023-04-18T09:35:37.746Z,5.50
2023-04-18T09:38:04.695Z,6.20
2023-04-18T09:40:31.871Z,6.00
2023-04-18T09:42:58.890Z,6.90
2023-04-18T09:45:25.938Z,6.10
2023-04-18T09:47:53.911Z,6.20
2023-04-18T09:50:20.938Z,6.20
2023-04-18T09:52:48.654Z,5.80
2023-04-18T09:55:17.604Z,5.50
2023-04-18T09:57:45.640Z,5.30
2023-04-18T10:00:38.769Z,6.90
2023-04-18T10:03:08.233Z,6.00
2023-04-18T10:05:36.315Z,6.50
2023-04-18T10:08:04.246Z,6.00
2023-04-18T10:10:30.991Z,6.30
2023-04-18T10:12:58.561Z,5.30
2023-04-18T10:15:26.576Z,5.60
2023-04-18T10:18:05.345Z,5.20
2023-04-18T10:20:33.796Z,4.90
2023-04-18T10:23:00.931Z,6.50
2023-04-18T10:25:39.794Z,10.10
2023-04-18T10:28:07.272Z,6.90
2023-04-18T10:30:44.435Z,5.70
2023-04-18T10:33:29.403Z,5.10
2023-04-18T10:36:11.649Z,5.40
2023-04-18T10:38:45.115Z,5.60
2023-04-18T10:41:38.495Z,5.60
2023-04-18T10:44:18.239Z,6.00
2023-04-18T10:46:48.175Z,6.10
2023-04-18T10:49:17.825Z,6.30
2023-04-18T10:51:50.480Z,5.20
2023-04-18T10:54:22.041Z,6.90
2023-04-18T10:56:52.780Z,5.80
2023-04-18T10:59:22.254Z,5.90
2023-04-18T11:01:49.450Z,5.50
2023-04-18T11:04:16.980Z,6.70
2023-04-18T11:06:50.284Z,8.90
2023-04-18T11:09:17.131Z,5.80
2023-04-18T11:11:44.409Z,4.70
2023-04-18T11:14:11.243Z,6.00
2023-04-18T11:16:38.121Z,5.50
2023-04-18T11:19:21.197Z,6.80
2023-04-18T11:21:47.934Z,8.10
2023-04-18T11:24:21.708Z,15.40
2023-04-18T11:26:48.426Z,9.20
2023-04-18T11:29:17.283Z,6.50
2023-04-18T11:31:49.883Z,6.20
2023-04-18T11:34:16.825Z,7.30
2023-04-18T11:36:43.575Z,6.50
2023-04-18T11:39:10.684Z,7.30
2023-04-18T11:41:37.421Z,5.10
2023-04-18T11:44:05.982Z,5.70
2023-04-18T11:46:39.311Z,5.90
2023-04-18T11:49:06.203Z,7.70
2023-04-18T11:51:40.086Z,10.80
2023-04-18T11:54:27.137Z,6.80
2023-04-18T11:56:53.962Z,12.00
2023-04-18T11:59:20.855Z,8.50
2023-04-18T12:01:48.312Z,6.50
2023-04-18T12:04:16.901Z,11.00
2023-04-18T12:06:47.685Z,6.90
2023-04-18T12:09:15.367Z,7.30
2023-04-18T12:11:42.605Z,6.90
2023-04-18T12:14:19.291Z,5.20
2023-04-18T12:16:46.106Z,6.20
2023-04-18T12:19:13.979Z,5.80
2023-04-18T12:21:57.202Z,7.90
2023-04-18T12:24:25.262Z,6.10
2023-04-18T12:26:52.380Z,4.90
2023-04-18T12:29:19.113Z,5.80
2023-04-18T12:31:45.888Z,5.40
2023-04-18T12:34:12.941Z,5.80
2023-04-18T12:36:39.876Z,6.30
2023-04-18T12:39:06.597Z,5.40
2023-04-18T12:41:33.319Z,6.30
2023-04-18T12:44:00.107Z,5.60
2023-04-18T12:46:26.966Z,4.80
2023-04-18T12:48:55.728Z,5.10
2023-04-18T12:51:22.961Z,5.40
2023-04-18T12:53:49.641Z,4.70
2023-04-18T12:56:16.320Z,5.40
2023-04-18T12:58:43.020Z,6.10
2023-04-18T13:01:09.826Z,5.60
2023-04-18T13:03:37.139Z,4.70
2023-04-18T13:06:06.073Z,6.80
2023-04-18T13:08:32.808Z,5.80
2023-04-18T13:10:59.543Z,5.50
2023-04-18T13:13:26.534Z,4.90
2023-04-18T13:15:53.284Z,7.40
2023-04-18T13:18:20.024Z,4.30
2023-04-18T13:20:46.852Z,5.60
2023-04-18T13:23:13.586Z,7.20
2023-04-18T13:25:40.560Z,4.80
2023-04-18T13:28:07.364Z,4.70
2023-04-18T13:30:36.013Z,5.30
2023-04-18T13:33:02.809Z,5.30
2023-04-18T13:35:30.236Z,6.50
2023-04-18T13:37:56.977Z,3.70
2023-04-18T13:40:24.382Z,4.20
2023-04-18T13:42:51.613Z,4.50
2023-04-18T13:45:18.739Z,4.10
2023-04-18T13:47:45.647Z,4.50
2023-04-18T13:50:12.470Z,4.30
2023-04-18T13:52:39.183Z,5.10
2023-04-18T13:55:06.246Z,4.40
2023-04-18T13:57:33.694Z,4.90
2023-04-18T14:00:00.410Z,4.20
2023-04-18T14:02:27.333Z,4.60
2023-04-18T14:04:55.013Z,4.90
2023-04-18T14:07:21.904Z,4.50
2023-04-18T14:09:48.645Z,4.70
2023-04-18T14:12:15.369Z,4.60
2023-04-18T14:14:42.110Z,5.10
2023-04-18T14:17:08.800Z,7.40
2023-04-18T14:19:35.510Z,4.80
2023-04-18T14:22:02.182Z,5.20
2023-04-18T14:24:28.898Z,6.20
2023-04-18T14:26:55.786Z,5.40
2023-04-18T14:29:22.557Z,5.40
2023-04-18T14:31:49.312Z,4.70
2023-04-18T14:34:16.129Z,4.70
2023-04-18T14:36:43.090Z,5.20
2023-04-18T14:39:10.425Z,5.00
2023-04-18T14:41:37.134Z,6.90
2023-04-18T14:44:04.281Z,8.30
2023-04-18T14:46:31.428Z,5.40
2023-04-18T14:48:58.296Z,5.80
2023-04-18T14:51:24.992Z,6.10
2023-04-18T14:53:51.704Z,6.10
2023-04-18T14:56:21.249Z,7.00
2023-04-18T14:58:48.108Z,6.80
2023-04-18T15:01:14.874Z,5.70
2023-04-18T15:03:41.719Z,5.80
2023-04-18T15:06:08.597Z,5.90
2023-04-18T15:08:35.422Z,6.40
2023-04-18T15:11:05.454Z,7.50
2023-04-18T15:13:32.868Z,5.00
2023-04-18T15:15:59.596Z,7.90
2023-04-18T15:18:26.581Z,6.30
2023-04-18T15:20:53.914Z,5.80
2023-04-18T15:23:20.865Z,6.70
2023-04-18T15:25:47.640Z,6.00
2023-04-18T15:28:14.430Z,8.60
2023-04-18T15:30:41.221Z,7.10
2023-04-18T15:33:08.530Z,6.60
2023-04-18T15:35:36.015Z,8.10
2023-04-18T15:38:02.945Z,6.60
2023-04-18T15:40:29.968Z,5.60
2023-04-18T15:42:57.857Z,5.90
2023-04-18T15:45:24.592Z,7.40
2023-04-18T15:47:51.753Z,7.00
2023-04-18T15:50:18.583Z,6.90
2023-04-18T15:52:45.432Z,7.80
2023-04-18T15:55:13.216Z,7.60
2023-04-18T15:57:40.719Z,6.90
2023-04-18T16:00:15.905Z,7.40
2023-04-18T16:02:46.192Z,6.60
2023-04-18T16:05:13.369Z,7.00
2023-04-18T16:07:40.405Z,7.20
2023-04-18T16:10:10.318Z,6.10
2023-04-18T16:12:38.420Z,7.20
2023-04-18T16:15:05.728Z,6.50
2023-04-18T16:17:32.541Z,7.50
2023-04-18T16:19:59.360Z,8.00
2023-04-18T16:22:26.286Z,6.70
2023-04-18T16:24:53.127Z,9.00
2023-04-18T16:27:19.942Z,7.70
2023-04-18T16:29:47.432Z,9.10
2023-04-18T16:32:14.234Z,7.00
2023-04-18T16:34:40.932Z,10.90
2023-04-18T16:37:07.727Z,8.20
2023-04-18T16:39:34.720Z,7.40
2023-04-18T16:42:01.555Z,8.20
2023-04-18T16:44:28.310Z,9.40
2023-04-18T16:46:55.070Z,9.60
2023-04-18T16:49:23.638Z,8.10
2023-04-18T16:51:50.471Z,9.80
2023-04-18T16:54:20.577Z,9.60
2023-04-18T16:56:47.540Z,7.00
2023-04-18T16:59:14.831Z,8.20
2023-04-18T17:01:41.983Z,7.70
2023-04-18T17:04:10.459Z,9.60
2023-04-18T17:06:37.331Z,11.80
2023-04-18T17:09:06.495Z,8.60
2023-04-18T17:11:38.840Z,8.30
2023-04-18T17:14:06.287Z,8.60
2023-04-18T17:16:35.030Z,9.50
2023-04-18T17:19:02.317Z,9.90
2023-04-18T17:21:29.617Z,7.20
2023-04-18T17:23:57.736Z,11.00
2023-04-18T17:26:26.463Z,8.90
2023-04-18T17:28:53.447Z,8.60
2023-04-18T17:31:20.422Z,9.70
2023-04-18T17:33:47.760Z,8.10
2023-04-18T17:36:14.567Z,9.10
2023-04-18T17:38:41.774Z,8.70
2023-04-18T17:41:08.903Z,6.80
2023-04-18T17:43:36.701Z,12.10
2023-04-18T17:46:04.273Z,8.10
2023-04-18T17:48:31.396Z,8.20
2023-04-18T17:50:58.710Z,10.50
2023-04-18T17:53:26.377Z,9.00
2023-04-18T17:55:54.016Z,7.60
2023-04-18T17:58:22.388Z,9.80
2023-04-18T18:00:49.991Z,10.60
2023-04-18T18:03:18.046Z,8.10
2023-04-18T18:05:46.097Z,8.20
2023-04-18T18:08:13.742Z,9.30
2023-04-18T18:10:41.255Z,10.10
2023-04-18T18:13:09.117Z,7.80
2023-04-18T18:15:36.594Z,8.60
2023-04-18T18:18:09.044Z,10.80
2023-04-18T18:20:36.853Z,9.20
2023-04-18T18:23:04.407Z,9.70
2023-04-18T18:25:37.821Z,11.40
2023-04-18T18:28:06.247Z,10.50
2023-04-18T18:30:34.304Z,10.20
2023-04-18T18:33:02.707Z,8.60
2023-04-18T18:35:30.637Z,8.00
2023-04-18T18:37:58.109Z,8.00
2023-04-18T18:40:25.904Z,13.10
2023-04-18T18:42:55.347Z,7.90
2023-04-18T18:45:24.247Z,10.50
2023-04-18T18:47:51.820Z,7.70
2023-04-18T18:50:19.209Z,7.40
2023-04-18T18:52:48.615Z,7.70
2023-04-18T18:55:17.078Z,8.20
2023-04-18T18:57:44.830Z,7.60
2023-04-18T19:00:12.848Z,9.50
2023-04-18T19:02:41.451Z,7.90
2023-04-18T19:05:09.833Z,8.80
2023-04-18T19:07:37.424Z,11.50
2023-04-18T19:10:05.600Z,7.10
2023-04-18T19:12:34.565Z,7.80
2023-04-18T19:15:03.639Z,8.70
2023-04-18T19:17:31.711Z,7.60
2023-04-18T19:20:01.592Z,9.90
2023-04-18T19:22:30.309Z,8.40
2023-04-18T19:24:59.197Z,7.50
2023-04-18T19:27:28.905Z,7.30
2023-04-18T19:29:56.422Z,7.80
2023-04-18T19:32:24.263Z,7.80
2023-04-18T19:34:53.657Z,7.70
2023-04-18T19:37:21.370Z,9.40
2023-04-18T19:39:48.359Z,8.30
2023-04-18T19:42:15.425Z,9.10
2023-04-18T19:44:43.134Z,7.10
2023-04-18T19:47:10.903Z,7.60
2023-04-18T19:49:38.914Z,8.00
2023-04-18T19:52:06.956Z,7.70
2023-04-18T19:54:34.491Z,7.20
2023-04-18T19:57:02.634Z,7.30
2023-04-18T19:59:31.561Z,7.20
2023-04-18T20:02:01.439Z,7.90
2023-04-18T20:04:31.861Z,8.00
2023-04-18T20:06:59.096Z,9.10
2023-04-18T20:09:26.804Z,8.20
2023-04-18T20:11:55.067Z,10.50
2023-04-18T20:14:23.506Z,6.50
2023-04-18T20:16:50.592Z,7.10
2023-04-18T20:19:19.397Z,7.40
2023-04-18T20:21:47.160Z,8.30
2023-04-18T20:24:16.134Z,6.00
2023-04-18T20:26:43.707Z,6.80
2023-04-18T20:29:14.473Z,8.20
2023-04-18T20:31:44.396Z,6.70
2023-04-18T20:34:11.482Z,8.90
2023-04-18T20:36:41.906Z,7.40
2023-04-18T20:39:09.575Z,7.50
2023-04-18T20:41:37.214Z,6.80
2023-04-18T20:44:05.859Z,8.40
2023-04-18T20:46:33.281Z,13.90
2023-04-18T20:49:00.884Z,10.90
2023-04-18T20:51:28.025Z,12.20
2023-04-18T20:53:54.731Z,9.90
2023-04-18T20:56:22.156Z,8.70
2023-04-18T20:58:49.456Z,10.30
2023-04-18T21:01:16.328Z,7.80
2023-04-18T21:03:43.754Z,12.10
2023-04-18T21:06:10.695Z,13.00
2023-04-18T21:08:39.331Z,13.20
2023-04-18T21:11:06.701Z,12.70
2023-04-18T21:13:33.534Z,10.60
2023-04-18T21:16:00.785Z,14.60
2023-04-18T21:18:27.592Z,15.50
2023-04-18T21:20:54.307Z,17.60
2023-04-18T21:23:22.814Z,59.60
2023-04-18T21:25:49.557Z,83.70
2023-04-18T21:28:16.340Z,64.70
2023-04-18T21:30:43.049Z,25.40
2023-04-18T21:33:09.852Z,16.20
2023-04-18T21:35:36.570Z,15.50
2023-04-18T21:38:03.381Z,17.30
2023-04-18T21:40:31.248Z,12.70
2023-04-18T21:42:57.994Z,12.50
2023-04-18T21:45:24.724Z,16.20
2023-04-18T21:47:52.559Z,15.10
2023-04-18T21:50:19.450Z,17.40
2023-04-18T21:52:46.145Z,16.60
2023-04-18T21:55:12.836Z,12.80
2023-04-18T21:57:39.580Z,13.80
2023-04-18T22:00:09.280Z,14.60
2023-04-18T22:02:37.192Z,16.60
2023-04-18T22:05:04.512Z,14.10
2023-04-18T22:07:31.255Z,13.50
2023-04-18T22:09:59.934Z,16.40
2023-04-18T22:12:27.177Z,12.60
2023-04-18T22:14:54.609Z,12.40
2023-04-18T22:17:22.089Z,11.20
2023-04-18T22:19:50.495Z,10.00
2023-04-18T22:22:17.224Z,10.20
2023-04-18T22:24:46.107Z,11.30
2023-04-18T22:27:14.132Z,8.30
2023-04-18T22:29:40.771Z,12.00
2023-04-18T22:32:07.457Z,10.00
2023-04-18T22:34:34.314Z,11.70
2023-04-18T22:37:01.020Z,15.20
2023-04-18T22:39:27.755Z,14.60
2023-04-18T22:41:54.431Z,12.90
2023-04-18T22:44:21.119Z,12.50
2023-04-18T22:46:48.307Z,14.70
2023-04-18T22:49:15.027Z,13.20
2023-04-18T22:51:42.310Z,15.30
2023-04-18T22:54:09.014Z,12.90
2023-04-18T22:56:35.738Z,11.80
2023-04-18T22:59:02.454Z,11.50
2023-04-18T23:01:29.229Z,12.20
2023-04-18T23:03:56.285Z,12.60
2023-04-18T23:06:23.270Z,14.00
2023-04-18T23:08:50.139Z,12.90
2023-04-18T23:11:16.958Z,14.70
2023-04-18T23:13:43.757Z,9.70
2023-04-18T23:16:10.791Z,9.00
2023-04-18T23:18:37.510Z,9.30
2023-04-18T23:21:04.245Z,9.30
2023-04-18T23:23:31.021Z,9.40
2023-04-18T23:25:58.076Z,8.40
2023-04-18T23:28:25.007Z,9.50
2023-04-18T23:30:52.669Z,8.40
2023-04-18T23:33:19.362Z,9.60
2023-04-18T23:35:46.199Z,7.10
2023-04-18T23:38:13.036Z,8.80
2023-04-18T23:40:39.835Z,9.30
2023-04-18T23:43:06.597Z,10.30
2023-04-18T23:45:33.353Z,10.30
2023-04-18T23:48:00.139Z,10.50
2023-04-18T23:50:26.963Z,10.50
2023-04-18T23:52:54.145Z,9.90
2023-04-18T23:55:20.885Z,8.60
2023-04-18T23:57:47.608Z,10.50
